Time;durP1;ratioP1;P1;durP2;ratioP2;P2;SDS_P1;SDS_P2;PMS_P1;PMS_P2;Temp;Humidity;BMP_temperature;BMP_pressure;BME280_temperature;BME280_humidity;BME280_pressure;Samples;Min_cycle;Max_cycle;Signal;HPM_P1;HPM_P2
2022/09/02 00:01:13;;;;;;;5.57;5.22;;;;;;;22.85;100.00;151783.66;5074703;28;20181;-59
2022/09/02 00:03:40;;;;;;;5.60;5.30;;;;;;;23.07;100.00;151839.81;5074900;28;20198;-62
2022/09/02 00:06:09;;;;;;;5.45;5.25;;;;;;;23.04;100.00;151832.13;5074870;28;20602;-61
2022/09/02 00:08:36;;;;;;;5.18;4.97;;;;;;;23.03;100.00;151829.59;5074489;28;20188;-60
2022/09/02 00:11:04;;;;;;;5.05;4.70;;;;;;;23.15;100.00;151858.94;5074522;28;20181;-60
2022/09/02 00:13:33;;;;;;;5.60;5.30;;;;;;;23.20;100.00;151871.69;5074783;28;20710;-61
2022/09/02 00:16:00;;;;;;;5.65;5.35;;;;;;;23.23;100.00;151880.63;5074526;28;20200;-61
2022/09/02 00:18:27;;;;;;;5.45;5.22;;;;;;;23.13;100.00;151855.09;5074770;28;20212;-61
2022/09/02 00:20:54;;;;;;;6.03;5.35;;;;;;;22.90;100.00;151796.44;5074490;28;20276;-61
2022/09/02 00:23:22;;;;;;;5.85;5.45;;;;;;;;;;5074573;28;20622;-61
2022/09/02 00:25:50;;;;;;;5.75;5.28;;;;;;;22.91;100.00;151799.00;5073922;28;20184;-60
2022/09/02 00:28:17;;;;;;;5.95;5.65;;;;;;;22.89;100.00;151793.88;5074511;28;20620;-61
2022/09/02 00:30:44;;;;;;;5.47;5.22;;;;;;;;;;5074515;28;20275;-60
2022/09/02 00:33:15;;;;;;;6.85;5.03;;;;;;;23.03;100.00;151829.59;5074630;28;20559;-61
2022/09/02 00:35:42;;;;;;;5.43;5.22;;;;;;;23.18;100.00;151866.56;5074053;28;20216;-62
2022/09/02 00:38:09;;;;;;;5.55;5.00;;;;;;;23.12;100.00;151852.56;5074351;28;20188;-61
2022/09/02 00:40:38;;;;;;;7.53;5.32;;;;;;;23.29;100.00;151893.41;5074300;28;20185;-61
2022/09/02 00:43:07;;;;;;;5.05;4.85;;;;;;;23.36;100.00;151911.25;5074297;28;20620;-61
2022/09/02 00:45:35;;;;;;;6.28;5.15;;;;;;;23.38;100.00;151917.59;5073779;28;20192;-61
2022/09/02 00:48:02;;;;;;;5.50;5.07;;;;;;;23.48;100.00;151943.19;5074365;28;20558;-61
2022/09/02 00:50:34;;;;;;;5.43;5.13;;;;;;;23.37;100.00;151915.09;5074017;28;20193;-61
2022/09/02 00:53:05;;;;;;;5.15;4.90;;;;;;;23.48;100.00;151943.19;5074354;28;20611;-61
2022/09/02 00:55:34;;;;;;;5.97;5.40;;;;;;;23.49;100.00;151944.47;5073874;28;20309;-61
2022/09/02 00:58:06;;;;;;;6.25;5.05;;;;;;;23.36;100.00;151912.53;5073639;28;20189;-60
2022/09/02 01:00:38;;;;;;;5.72;5.43;;;;;;;23.50;100.00;151947.03;5074109;28;20554;-61
2022/09/02 01:03:08;;;;;;;5.70;5.30;;;;;;;23.45;100.00;151934.28;5074194;28;20189;-60
2022/09/02 01:05:43;;;;;;;5.60;5.20;;;;;;;23.51;100.00;151949.56;5073479;28;20185;-61
2022/09/02 01:08:15;;;;;;;5.28;4.93;;;;;;;23.45;100.00;151935.56;5073687;28;20234;-61
2022/09/02 01:10:43;;;;;;;9.57;5.90;;;;;;;23.49;100.00;151945.75;5073413;28;20187;-60
2022/09/02 01:13:17;;;;;;;6.22;5.93;;;;;;;23.56;100.00;151962.31;5073918;28;20511;-60
2022/09/02 01:15:47;;;;;;;5.72;5.53;;;;;;;23.54;100.00;151958.53;5073198;28;20250;-60
2022/09/02 01:18:18;;;;;;;5.60;5.40;;;;;;;23.42;100.00;151926.56;5073264;28;20185;-60
2022/09/02 01:20:46;;;;;;;5.55;5.35;;;;;;;23.31;100.00;151898.47;5073224;28;20294;-60
2022/09/02 01:23:16;;;;;;;5.47;5.28;;;;;;;23.20;100.00;151873.00;5073161;28;20215;-60
2022/09/02 01:25:43;;;;;;;5.28;4.90;;;;;;;23.02;100.00;151825.75;5073159;28;20181;-60
2022/09/02 01:28:12;;;;;;;5.22;4.93;;;;;;;23.06;100.00;151835.97;5073149;28;20184;-61
2022/09/02 01:30:43;;;;;;;6.32;5.03;;;;;;;23.11;100.00;151850.00;5073342;28;20555;-61
2022/09/02 01:33:10;;;;;;;5.72;5.28;;;;;;;22.85;100.00;151783.66;5073397;28;20555;-61
2022/09/02 01:35:37;;;;;;;5.30;5.10;;;;;;;22.95;100.00;151807.91;5072864;28;20204;-61
2022/09/02 01:38:05;;;;;;;5.45;5.03;;;;;;;23.02;100.00;151825.75;5071915;28;20192;-61
2022/09/02 01:40:34;;;;;;;4.70;4.40;;;;;;;22.93;100.00;151802.78;5072751;28;20192;-61
2022/09/02 01:43:05;;;;;;;5.05;4.85;;;;;;;23.03;100.00;151829.59;5072790;28;20279;-61
2022/09/02 01:45:32;;;;;;;5.25;4.95;;;;;;;23.02;100.00;151827.03;5072590;28;20185;-60
2022/09/02 01:47:59;;;;;;;5.28;4.80;;;;;;;22.95;100.00;151807.91;5073110;28;20643;-61
2022/09/02 01:50:27;;;;;;;5.07;4.88;;;;;;;22.85;100.00;151782.38;5072956;28;20192;-62
2022/09/02 01:52:54;;;;;;;4.60;4.40;;;;;;;23.00;100.00;151820.69;5072897;28;20675;-61
2022/09/02 01:55:21;;;;;;;5.05;4.85;;;;;;;22.89;100.00;151793.88;5072767;28;20208;-61
2022/09/02 01:57:50;;;;;;;4.45;4.00;;;;;;;22.90;100.00;151795.16;5072711;28;20196;-60
2022/09/02 02:00:19;;;;;;;4.85;4.65;;;;;;;23.07;100.00;151838.53;5072461;28;20184;-60
2022/09/02 02:02:46;;;;;;;4.70;4.43;;;;;;;23.10;100.00;151846.16;5072741;28;20661;-61
2022/09/02 02:05:14;;;;;;;4.70;4.40;;;;;;;23.04;100.00;151832.13;5072707;28;20287;-61
2022/09/02 02:07:43;;;;;;;4.78;4.43;;;;;;;23.00;100.00;151820.69;5072708;28;20698;-61
2022/09/02 02:10:12;;;;;;;4.15;3.88;;;;;;;23.01;100.00;151824.47;5072554;28;20180;-60
2022/09/02 02:12:39;;;;;;;4.70;4.30;;;;;;;23.14;100.00;151857.66;5072526;28;20646;-61
2022/09/02 02:15:11;;;;;;;4.78;4.57;;;;;;;23.18;100.00;151866.56;5072074;28;20236;-62
2022/09/02 02:17:38;;;;;;;4.82;4.28;;;;;;;23.25;100.00;151884.47;5072441;28;20568;-60
2022/09/02 02:20:08;;;;;;;6.97;4.15;;;;;;;23.32;100.00;151902.31;5072437;28;20250;-61
2022/09/02 02:22:35;;;;;;;4.55;4.03;;;;;;;23.22;100.00;151878.06;5072319;28;20687;-60
2022/09/02 02:25:02;;;;;;;3.92;3.72;;;;;;;23.25;100.00;151884.47;5072402;28;20177;-61
2022/09/02 02:27:29;;;;;;;4.00;3.80;;;;;;;23.37;100.00;151913.81;5071966;28;20188;-61
2022/09/02 02:29:56;;;;;;;4.47;4.28;;;;;;;23.36;100.00;151912.53;5072015;28;20193;-61
2022/09/02 02:32:25;;;;;;;4.75;4.28;;;;;;;23.27;100.00;151888.28;5072279;28;20203;-61
2022/09/02 02:34:53;;;;;;;4.72;4.43;;;;;;;23.31;100.00;151899.75;5072233;28;20208;-61
2022/09/02 02:37:20;;;;;;;4.10;3.90;;;;;;;23.28;100.00;151892.13;5072354;28;20189;-61
2022/09/02 02:39:47;;;;;;;4.45;4.15;;;;;;;23.25;100.00;151884.47;5072233;28;20184;-61
2022/09/02 02:42:13;;;;;;;4.32;4.00;;;;;;;23.34;100.00;151906.16;5072199;28;20628;-61
2022/09/02 02:44:42;;;;;;;4.60;4.10;;;;;;;23.26;100.00;151887.00;5072169;28;20189;-62
2022/09/02 02:47:09;;;;;;;4.03;3.72;;;;;;;23.30;100.00;151895.97;5071761;28;20232;-60
2022/09/02 02:49:40;;;;;;;4.10;3.90;;;;;;;23.30;100.00;151895.97;5071449;28;20185;-60
2022/09/02 02:52:08;;;;;;;4.40;4.10;;;;;;;23.32;100.00;151901.03;5071746;28;20275;-60
2022/09/02 02:54:37;;;;;;;7.88;4.53;;;;;;;23.21;100.00;151875.50;5071984;28;20689;-61
2022/09/02 02:57:05;;;;;;;4.95;4.43;;;;;;;23.18;100.00;151867.84;5071971;28;20185;-61
2022/09/02 02:59:32;;;;;;;4.60;4.30;;;;;;;23.22;100.00;151878.06;5071774;28;20191;-61
2022/09/02 03:01:59;;;;;;;5.18;4.47;;;;;;;23.28;100.00;151892.13;5071680;28;20188;-62
2022/09/02 03:04:26;;;;;;;4.50;4.30;;;;;;;23.28;100.00;151890.84;5071604;28;20184;-61
2022/09/02 03:06:54;;;;;;;4.55;4.35;;;;;;;23.32;100.00;151902.31;5071740;28;20196;-60
2022/09/02 03:09:21;;;;;;;4.20;4.00;;;;;;;23.21;100.00;151875.50;5071876;28;20654;-60
2022/09/02 03:11:48;;;;;;;4.78;4.35;;;;;;;23.14;100.00;151857.66;5071828;28;20184;-61
2022/09/02 03:14:17;;;;;;;4.72;4.30;;;;;;;23.22;100.00;151876.78;5071829;28;20189;-61
2022/09/02 03:16:44;;;;;;;4.07;3.78;;;;;;;23.30;100.00;151895.97;5071826;28;20191;-61
2022/09/02 03:19:13;;;;;;;4.15;3.92;;;;;;;23.27;100.00;151888.28;5071524;28;20188;-61
2022/09/02 03:21:40;;;;;;;5.05;4.60;;;;;;;23.43;100.00;151930.44;5071870;28;20614;-61
2022/09/02 03:24:10;;;;;;;4.60;4.07;;;;;;;23.28;100.00;151892.13;5071442;28;20234;-61
2022/09/02 03:26:37;;;;;;;4.40;4.15;;;;;;;23.35;100.00;151908.69;5071776;28;20185;-61
2022/09/02 03:29:04;;;;;;;4.50;4.15;;;;;;;23.25;100.00;151884.47;5071743;28;20281;-60
2022/09/02 03:31:32;;;;;;;7.35;4.10;;;;;;;23.41;100.00;151924.00;5071720;28;20559;-61
2022/09/02 03:33:59;;;;;;;4.38;4.03;;;;;;;23.42;100.00;151926.56;5071654;28;20644;-61
2022/09/02 03:36:28;;;;;;;4.75;4.22;;;;;;;23.24;100.00;151881.91;5071457;28;20240;-61
2022/09/02 03:38:56;;;;;;;7.82;3.88;;;;;;;23.52;100.00;151953.41;5071598;28;20189;-60
2022/09/02 03:41:25;;;;;;;4.90;4.47;;;;;;;23.44;100.00;151933.00;5070152;28;20196;-60
2022/09/02 03:43:52;;;;;;;4.30;4.00;;;;;;;23.38;100.00;151916.38;5071430;28;20288;-61
2022/09/02 03:46:19;;;;;;;5.72;4.00;;;;;;;23.31;100.00;151898.47;5071381;28;20757;-61
2022/09/02 03:48:49;;;;;;;4.10;3.88;;;;;;;23.33;100.00;151903.59;5071294;28;20189;-60
2022/09/02 03:51:16;;;;;;;4.47;4.18;;;;;;;23.34;100.00;151907.41;5071345;28;20196;-61
2022/09/02 03:53:42;;;;;;;4.28;3.95;;;;;;;23.37;100.00;151913.81;5071663;28;20192;-60
2022/09/02 03:56:12;;;;;;;6.60;4.60;;;;;;;23.37;100.00;151913.81;5071218;28;20240;-61
2022/09/02 03:58:41;;;;;;;3.60;3.50;;;;;;;23.30;100.00;151895.97;5071053;28;20189;-61
2022/09/02 04:01:12;;;;;;;6.00;4.43;;;;;;;23.44;100.00;151931.72;5072649;28;20279;-61
2022/09/02 04:03:39;;;;;;;5.57;5.18;;;;;;;23.38;100.00;151916.38;5074645;28;20189;-61
2022/09/02 04:06:11;;;;;;;4.68;3.75;;;;;;;23.47;100.00;151939.34;5074701;28;20560;-62
2022/09/02 04:08:39;;;;;;;3.83;3.53;;;;;;;23.67;100.00;151991.72;5074518;28;20185;-60
2022/09/02 04:11:08;;;;;;;4.05;3.85;;;;;;;23.91;100.00;152050.41;5074997;28;20199;-60
2022/09/02 04:13:35;;;;;;;5.68;4.93;;;;;;;23.77;100.00;152014.66;5074514;28;20189;-61
2022/09/02 04:16:08;;;;;;;4.60;4.40;;;;;;;24.13;100.00;152106.59;5074495;28;20212;-60
2022/09/02 04:18:35;;;;;;;4.40;4.10;;;;;;;24.46;100.00;152189.63;5074573;28;20590;-61
2022/09/02 04:21:03;;;;;;;4.63;4.30;;;;;;;24.41;100.00;152176.84;5074779;28;20623;-60
2022/09/02 04:23:30;;;;;;;4.70;4.40;;;;;;;24.67;100.00;152243.25;5074649;28;20247;-61
2022/09/02 04:25:57;;;;;;;7.28;4.72;;;;;;;25.09;100.00;152349.31;5074309;28;20189;-61
2022/09/02 04:28:24;;;;;;;6.82;5.00;;;;;;;25.43;100.00;152436.19;5074270;28;20189;-60
2022/09/02 04:30:51;;;;;;;4.55;4.15;;;;;;;25.53;100.00;152460.53;5074249;28;20184;-60
2022/09/02 04:33:20;;;;;;;4.97;4.28;;;;;;;25.61;100.00;152480.97;5074774;28;20204;-61
2022/09/02 04:35:48;;;;;;;4.25;4.00;;;;;;;25.63;100.00;152484.84;5106648;28;20299;-60
2022/09/02 04:38:15;;;;;;;5.13;4.22;;;;;;;25.92;100.00;152558.97;5074112;28;20239;-61
2022/09/02 04:40:43;;;;;;;3.88;3.67;;;;;;;25.95;100.00;152566.63;5074430;28;20195;-61
2022/09/02 04:43:11;;;;;;;4.70;4.30;;;;;;;25.78;100.00;152524.44;5074456;28;20191;-60
2022/09/02 04:45:40;;;;;;;3.63;3.42;;;;;;;25.85;100.00;152541.03;5073786;28;20188;-61
2022/09/02 04:48:06;;;;;;;3.95;3.53;;;;;;;25.68;100.00;152498.84;5073943;28;20188;-61
2022/09/02 04:50:36;;;;;;;4.32;4.00;;;;;;;25.96;100.00;152567.91;5073939;28;20284;-61
2022/09/02 04:53:03;;;;;;;3.92;3.70;;;;;;;26.36;100.00;152670.19;5074170;28;20193;-60
2022/09/02 04:55:30;;;;;;;4.25;3.53;;;;;;;26.69;100.00;152753.34;5073416;28;20209;-61
2022/09/02 04:57:57;;;;;;;4.13;3.92;;;;;;;26.80;100.00;152782.75;5073805;28;20280;-60
2022/09/02 05:00:24;;;;;;;4.20;3.65;;;;;;;26.66;100.00;152745.63;5073591;28;20180;-61
2022/09/02 05:02:53;;;;;;;6.85;4.15;;;;;;;26.53;100.00;152712.38;5073652;28;20203;-62
2022/09/02 05:05:20;;;;;;;3.97;3.58;;;;;;;26.80;100.00;152781.47;5073482;28;20246;-62
2022/09/02 05:07:48;;;;;;;4.35;3.53;;;;;;;26.62;100.00;152736.69;5073775;28;20185;-59
2022/09/02 05:10:15;;;;;;;4.63;4.30;;;;;;;27.10;100.00;152856.97;5073456;28;20191;-60
2022/09/02 05:12:42;;;;;;;4.45;4.25;;;;;;;26.94;100.00;152817.34;5073866;28;20192;-61
2022/09/02 05:15:11;;;;;;;4.40;4.10;;;;;;;27.08;100.00;152853.13;5072333;28;20212;-61
2022/09/02 05:17:37;;;;;;;5.22;4.10;;;;;;;27.23;100.00;152890.25;5073537;28;20275;-61
2022/09/02 05:20:06;;;;;;;4.32;4.13;;;;;;;27.49;100.00;152956.81;5073305;28;20185;-60
2022/09/02 05:22:33;;;;;;;3.58;3.47;;;;;;;28.03;100.00;153093.75;5073570;28;20505;-61
2022/09/02 05:25:02;;;;;;;7.22;4.45;;;;;;;28.05;100.00;153097.59;5073429;28;20189;-61
2022/09/02 05:27:29;;;;;;;4.38;3.75;;;;;;;28.02;100.00;153089.88;5073447;28;20650;-61
2022/09/02 05:29:56;;;;;;;4.15;3.92;;;;;;;27.70;100.00;153010.56;5073411;28;20621;-61
2022/09/02 05:32:23;;;;;;;8.35;4.20;;;;;;;26.87;100.00;152798.13;5073497;28;20254;-62
2022/09/02 05:34:50;;;;;;;4.82;4.43;;;;;;;27.10;100.00;152858.25;5072834;28;20192;-60
2022/09/02 05:37:18;;;;;;;5.55;4.25;;;;;;;27.35;100.00;152920.94;5072420;28;20212;-60
2022/09/02 05:39:44;;;;;;;4.57;3.92;;;;;;;27.34;100.00;152918.38;5072872;28;20628;-61
2022/09/02 05:42:13;;;;;;;4.07;3.80;;;;;;;27.57;100.00;152976.00;5073015;28;20267;-62
2022/09/02 05:44:43;;;;;;;4.47;3.53;;;;;;;28.35;100.00;153173.13;5072601;28;20276;-62
2022/09/02 05:47:10;;;;;;;4.00;3.67;;;;;;;28.37;100.00;153179.56;5072431;28;20282;-63
2022/09/02 05:49:37;;;;;;;3.90;3.53;;;;;;;28.75;100.00;153275.63;5072439;28;20228;-63
2022/09/02 05:52:08;;;;;;;4.00;3.40;;;;;;;29.34;100.00;153425.50;5072770;28;20644;-63
2022/09/02 05:54:38;;;;;;;3.95;3.65;;;;;;;29.38;100.00;153434.47;5072328;28;20189;-62
2022/09/02 05:57:08;;;;;;;4.90;3.55;;;;;;;30.07;100.00;153608.78;5072158;28;20205;-63
2022/09/02 05:59:41;;;;;;;5.45;3.97;;;;;;;30.38;100.00;153689.50;5072034;28;20242;-62
2022/09/02 06:02:09;;;;;;;6.43;3.97;;;;;;;30.26;100.00;153657.44;5072631;28;20198;-62
2022/09/02 06:04:38;;;;;;;3.55;3.35;;;;;;;28.65;100.00;153248.66;5072445;28;20242;-62
2022/09/02 06:07:07;;;;;;;9.07;3.60;;;;;;;29.18;100.00;153383.19;5071935;28;20192;-63
2022/09/02 06:09:34;;;;;;;4.13;3.72;;;;;;;29.04;100.00;153349.88;5072274;28;20258;-63
2022/09/02 06:12:02;;;;;;;4.50;4.10;;;;;;;29.17;100.00;153381.91;5072452;28;20632;-61
2022/09/02 06:14:29;;;;;;;4.13;3.45;;;;;;;28.93;100.00;153320.44;5071959;28;20185;-63
2022/09/02 06:16:58;;;;;;;4.60;3.50;;;;;;;28.68;100.00;153256.38;5071934;28;20216;-62
2022/09/02 06:19:29;;;;;;;8.18;3.67;;;;;;;28.60;100.00;153238.41;5072424;28;20635;-62
2022/09/02 06:21:56;;;;;;;11.70;4.50;;;;;;;29.16;100.00;153379.34;5072247;28;20540;-62
2022/09/02 06:24:24;;;;;;;6.90;4.28;;;;;;;28.98;100.00;153334.50;5071872;28;20195;-61
2022/09/02 06:26:52;;;;;;;4.43;3.88;;;;;;;28.12;100.00;153115.56;5072185;28;20286;-63
2022/09/02 06:29:19;;;;;;;4.35;4.05;;;;;;;27.70;100.00;153009.28;5071857;28;20185;-62
2022/09/02 06:31:48;;;;;;;9.30;4.65;;;;;;;27.85;100.00;153047.66;5071903;28;20196;-63
2022/09/02 06:34:19;;;;;;;7.20;4.85;;;;;;;27.79;100.00;153032.31;5070801;28;20200;-61
2022/09/02 06:36:49;;;;;;;4.53;4.28;;;;;;;28.05;100.00;153097.59;5071900;28;20208;-62
2022/09/02 06:39:18;;;;;;;5.25;4.45;;;;;;;27.71;100.00;153013.09;5071869;28;20228;-62
2022/09/02 06:41:47;;;;;;;4.97;4.20;;;;;;;27.58;100.00;152978.56;5072022;28;20188;-61
2022/09/02 06:44:15;;;;;;;5.03;4.53;;;;;;;27.83;100.00;153041.28;5071697;28;20267;-63
2022/09/02 06:46:46;;;;;;;11.35;4.13;;;;;;;27.99;100.00;153082.22;5071722;28;20595;-62
2022/09/02 06:49:16;;;;;;;5.60;4.72;;;;;;;28.36;100.00;153175.69;5072195;28;20177;-62
2022/09/02 06:51:45;;;;;;;6.35;4.72;;;;;;;28.93;100.00;153321.72;5071796;28;20188;-63
2022/09/02 06:54:14;;;;;;;5.65;4.20;;;;;;;29.24;100.00;153399.81;5072051;28;20193;-62
2022/09/02 06:56:42;;;;;;;7.55;4.20;;;;;;;28.86;100.00;153303.78;5071777;28;20204;-62
2022/09/02 06:59:09;;;;;;;7.50;4.90;;;;;;;29.32;100.00;153420.38;5071924;28;20188;-63
2022/09/02 07:01:36;;;;;;;5.53;4.30;;;;;;;29.29;100.00;153412.69;5071655;28;20563;-63
2022/09/02 07:06:52;;;;;;;4.13;3.92;;;;;;;28.32;100.00;153166.75;5071618;28;20176;-63
2022/09/02 07:09:22;;;;;;;4.63;4.30;;;;;;;28.16;100.00;153125.78;5071394;28;20177;-64
2022/09/02 07:11:50;;;;;;;5.15;4.70;;;;;;;28.15;100.00;153123.22;5071737;28;20231;-62
2022/09/02 07:14:20;;;;;;;5.00;4.57;;;;;;;27.98;100.00;153080.94;5071646;28;20473;-65
2022/09/02 07:16:50;;;;;;;5.43;4.60;;;;;;;27.69;100.00;153008.00;5071540;28;20275;-63
2022/09/02 07:19:17;;;;;;;7.00;5.50;;;;;;;27.73;100.00;153015.66;5071230;28;20184;-62
2022/09/02 07:21:44;;;;;;;6.22;5.35;;;;;;;27.51;100.00;152961.91;5071218;28;20191;-63
2022/09/02 07:24:14;;;;;;;6.85;5.13;;;;;;;27.53;100.00;152965.78;5071277;28;20267;-63
2022/09/02 07:26:42;;;;;;;6.07;5.05;;;;;;;27.67;100.00;153002.84;5071365;28;20193;-63
2022/09/02 07:29:11;;;;;;;9.50;5.80;;;;;;;27.79;100.00;153031.03;5071204;28;20193;-63
2022/09/02 07:31:41;;;;;;;6.15;5.68;;;;;;;28.06;100.00;153100.13;5079763;28;20278;-63
2022/09/02 07:34:08;;;;;;;8.52;5.63;;;;;;;28.35;100.00;153174.41;5090750;28;20188;-63
2022/09/02 07:36:36;;;;;;;5.88;5.03;;;;;;;28.33;100.00;153169.31;5093317;28;20224;-62
2022/09/02 07:39:04;;;;;;;7.00;5.70;;;;;;;28.15;100.00;153123.22;5095668;28;20688;-63
2022/09/02 07:41:33;;;;;;;8.98;5.43;;;;;;;27.64;100.00;152993.91;5095478;28;20188;-63
2022/09/02 07:44:00;;;;;;;7.63;5.82;;;;;;;27.77;100.00;153025.91;5095119;28;20192;-63
2022/09/02 07:46:28;;;;;;;6.40;5.72;;;;;;;27.82;100.00;153038.69;5095369;28;20317;-63
2022/09/02 07:48:55;;;;;;;5.00;4.70;;;;;;;27.39;100.00;152929.88;5095223;28;20237;-62
2022/09/02 07:51:23;;;;;;;6.10;5.13;;;;;;;27.48;100.00;152952.97;5094967;28;20188;-63
2022/09/02 07:53:50;;;;;;;5.97;5.47;;;;;;;27.90;100.00;153060.47;5095295;28;20190;-63
2022/09/02 07:56:17;;;;;;;9.18;5.15;;;;;;;28.34;100.00;153171.88;5095235;28;20208;-63
2022/09/02 07:58:46;;;;;;;10.50;4.53;;;;;;;28.50;100.00;153212.84;5095259;28;20694;-63
2022/09/02 08:01:13;;;;;;;4.82;4.43;;;;;;;28.58;100.00;153233.31;5095161;28;20210;-63
2022/09/02 08:03:43;;;;;;;5.00;4.53;;;;;;;28.29;100.00;153159.06;5094875;28;20192;-63
2022/09/02 08:06:12;;;;;;;7.18;4.57;;;;;;;28.30;100.00;153161.66;5095025;28;20184;-63
2022/09/02 08:08:39;;;;;;;4.43;3.97;;;;;;;28.34;100.00;153171.88;5094885;28;20233;-62
2022/09/02 08:11:07;;;;;;;5.10;4.30;;;;;;;28.09;100.00;153107.84;5094949;28;20623;-62
2022/09/02 08:13:34;;;;;;;4.80;4.38;;;;;;;28.15;100.00;153124.50;5094625;28;20194;-63
2022/09/02 08:16:03;;;;;;;4.90;4.60;;;;;;;28.28;100.00;153156.50;5094723;28;20187;-63
2022/09/02 08:18:31;;;;;;;4.80;4.50;;;;;;;28.32;100.00;153166.75;5090648;28;20196;-63
2022/09/02 08:20:58;;;;;;;5.38;4.55;;;;;;;28.18;100.00;153129.66;5094528;28;20191;-63
2022/09/02 08:23:26;;;;;;;5.07;4.07;;;;;;;28.40;100.00;153187.22;5094397;28;20190;-62
2022/09/02 08:25:52;;;;;;;4.20;4.00;;;;;;;28.10;100.00;153111.69;5094702;28;20180;-63
2022/09/02 08:28:19;;;;;;;5.45;4.30;;;;;;;27.99;100.00;153082.22;5095555;28;20195;-64
2022/09/02 08:30:46;;;;;;;4.43;4.00;;;;;;;27.80;100.00;153033.56;5094839;28;20184;-64
2022/09/02 08:33:14;;;;;;;9.30;4.53;;;;;;;27.55;100.00;152970.88;5094892;28;20707;-63
2022/09/02 08:35:42;;;;;;;9.80;4.97;;;;;;;27.61;100.00;152987.53;5094456;28;20598;-63
2022/09/02 08:38:08;;;;;;;5.57;4.78;;;;;;;27.22;100.00;152887.66;5093123;28;20208;-62
2022/09/02 08:40:39;;;;;;;6.45;4.93;;;;;;;27.12;100.00;152862.06;5094024;28;20199;-63
2022/09/02 08:43:23;;;;;;;6.53;5.10;;;;;;;27.00;100.00;152831.38;5094291;28;20191;-62
2022/09/02 08:45:53;;;;;;;7.70;4.53;;;;;;;27.09;100.00;152855.69;5094067;28;20250;-63
2022/09/02 08:48:28;;;;;;;5.68;5.15;;;;;;;27.14;100.00;152867.22;5093345;28;20180;-62
2022/09/02 08:51:02;;;;;;;6.82;5.68;;;;;;;27.33;100.00;152914.56;5094319;28;20194;-63
2022/09/02 08:53:35;;;;;;;7.57;5.03;;;;;;;27.34;100.00;152917.06;5094134;28;20617;-63
2022/09/02 08:56:05;;;;;;;5.47;5.00;;;;;;;27.49;100.00;152955.53;5093912;28;20200;-62
2022/09/02 08:58:39;;;;;;;5.90;5.28;;;;;;;27.65;100.00;152997.75;5094055;28;20631;-62
2022/09/02 09:01:13;;;;;;;5.57;5.07;;;;;;;27.66;100.00;153000.34;5094309;28;20192;-62
2022/09/02 09:04:00;;;;;;;7.82;5.00;;;;;;;27.64;100.00;152995.19;5091293;28;20195;-63
2022/09/02 09:06:39;;;;;;;6.72;6.10;;;;;;;27.64;100.00;152995.19;5089355;28;20211;-63
2022/09/02 09:09:14;;;;;;;10.93;5.43;;;;;;;27.81;100.00;153037.41;5088608;28;20646;-64
2022/09/02 09:11:45;;;;;;;5.93;5.45;;;;;;;27.74;100.00;153018.22;5092511;28;20197;-63
2022/09/02 09:14:22;;;;;;;6.22;5.28;;;;;;;27.96;100.00;153074.56;5092436;28;20224;-63
2022/09/02 09:16:56;;;;;;;6.05;5.03;;;;;;;28.00;100.00;153086.06;5090026;28;20229;-63
2022/09/02 09:19:35;;;;;;;5.55;5.10;;;;;;;28.05;100.00;153098.84;5087513;28;20211;-63
2022/09/02 09:22:02;;;;;;;5.95;5.40;;;;;;;28.13;100.00;153118.13;5090070;28;20184;-64
2022/09/02 09:24:35;;;;;;;5.65;5.28;;;;;;;27.83;100.00;153041.28;5092716;28;20192;-63
2022/09/02 09:27:06;;;;;;;6.25;5.65;;;;;;;28.00;100.00;153084.78;5090112;28;20646;-63
2022/09/02 09:29:35;;;;;;;5.45;5.15;;;;;;;27.95;100.00;153071.97;5092437;28;20190;-63
2022/09/02 09:32:03;;;;;;;6.07;5.50;;;;;;;28.10;100.00;153110.41;5086903;28;20207;-64
2022/09/02 09:35:02;;;;;;;5.70;5.30;;;;;;;27.96;100.00;153074.56;5086115;28;20191;-63
2022/09/02 09:37:32;;;;;;;8.23;5.32;;;;;;;28.04;100.00;153095.03;5080399;28;20326;-63
2022/09/02 09:39:59;;;;;;;5.90;5.50;;;;;;;27.84;100.00;153045.09;5086844;28;20204;-63
2022/09/02 09:42:34;;;;;;;6.13;5.57;;;;;;;27.86;100.00;153048.94;5093015;28;20245;-63
2022/09/02 09:45:17;;;;;;;10.20;5.60;;;;;;;27.67;100.00;153002.84;5093176;28;20192;-63
2022/09/02 09:47:44;;;;;;;6.35;5.78;;;;;;;27.88;100.00;153054.06;5092881;28;20223;-63
2022/09/02 09:50:16;;;;;;;6.50;6.05;;;;;;;28.10;100.00;153111.69;5085218;28;20196;-64
2022/09/02 09:52:43;;;;;;;7.15;5.28;;;;;;;28.38;100.00;153182.13;5092566;28;20184;-64
2022/09/02 09:55:15;;;;;;;7.10;5.40;;;;;;;28.57;100.00;153229.47;5092737;28;20192;-64
2022/09/02 09:57:43;;;;;;;9.13;6.20;;;;;;;28.26;100.00;153151.41;5092717;28;20662;-64
2022/09/02 10:00:13;;;;;;;7.30;6.05;;;;;;;28.69;100.00;153260.19;5092051;28;20188;-65
2022/09/02 10:02:47;;;;;;;9.25;6.13;;;;;;;28.53;100.00;153220.50;5092546;28;20192;-64
2022/09/02 10:05:28;;;;;;;11.32;6.00;;;;;;;28.97;100.00;153330.69;5092778;28;20283;-63
2022/09/02 10:07:58;;;;;;;9.32;6.00;;;;;;;28.85;100.00;153301.25;5091788;28;20206;-64
2022/09/02 10:10:26;;;;;;;7.43;6.70;;;;;;;29.17;100.00;153381.91;5092476;28;20184;-63
2022/09/02 10:12:57;;;;;;;6.32;5.93;;;;;;;28.30;100.00;153160.34;5092358;28;20180;-64
2022/09/02 10:15:32;;;;;;;8.60;5.63;;;;;;;28.60;100.00;153237.19;5092631;28;20233;-63
2022/09/02 10:18:14;;;;;;;9.10;5.90;;;;;;;28.45;100.00;153200.03;5092235;28;20243;-64
2022/09/02 10:20:52;;;;;;;7.03;6.43;;;;;;;28.74;100.00;153271.75;5092678;28;20612;-63
2022/09/02 10:23:32;;;;;;;9.55;5.85;;;;;;;28.77;100.00;153279.47;5092160;28;20637;-63
2022/09/02 10:26:11;;;;;;;7.82;7.15;;;;;;;28.51;100.00;153214.13;5092280;28;20180;-64
2022/09/02 10:29:07;;;;;;;9.27;7.10;;;;;;;28.14;100.00;153120.66;5092260;28;20634;-65
2022/09/02 10:31:43;;;;;;;11.65;6.78;;;;;;;27.98;100.00;153079.66;5091854;28;20196;-62
2022/09/02 10:34:21;;;;;;;7.60;6.50;;;;;;;27.98;100.00;153079.66;5092228;28;20632;-63
2022/09/02 10:37:09;;;;;;;7.47;7.07;;;;;;;28.23;100.00;153142.41;5091792;28;20188;-65
2022/09/02 10:39:57;;;;;;;8.68;7.32;;;;;;;28.45;100.00;153200.03;5092459;28;20274;-67
2022/09/02 10:42:35;;;;;;;7.05;6.65;;;;;;;28.83;100.00;153294.81;5092308;28;20219;-62
2022/09/02 10:45:12;;;;;;;5.68;5.47;;;;;;;29.00;100.00;153338.38;5091998;28;20275;-62
2022/09/02 10:47:42;;;;;;;6.22;5.82;;;;;;;29.03;100.00;153346.03;5091528;28;20705;-62
2022/09/02 10:50:19;;;;;;;7.22;6.50;;;;;;;29.30;100.00;153413.97;5091607;28;20184;-62
2022/09/02 10:53:20;;;;;;;9.77;7.05;;;;;;;29.14;100.00;153374.25;5092000;28;20752;-63
2022/09/02 10:55:57;;;;;;;7.15;6.30;;;;;;;29.12;100.00;153367.81;5091542;28;20196;-63
2022/09/02 10:58:38;;;;;;;11.63;5.93;;;;;;;29.77;100.00;153534.41;5091565;28;20214;-62
2022/09/02 11:01:08;;;;;;;7.15;5.78;;;;;;;29.30;100.00;153415.25;5091833;28;20183;-63
2022/09/02 11:03:41;;;;;;;6.65;6.25;;;;;;;29.12;100.00;153367.81;5090766;28;20253;-62
2022/09/02 11:06:11;;;;;;;8.55;5.47;;;;;;;28.64;100.00;153247.41;5091958;28;20180;-63
2022/09/02 11:08:46;;;;;;;8.52;5.75;;;;;;;28.91;100.00;153316.59;5091735;28;20279;-61
2022/09/02 11:11:20;;;;;;;7.35;6.32;;;;;;;28.67;100.00;153255.09;5095162;28;20206;-62
2022/09/02 11:13:58;;;;;;;6.88;5.47;;;;;;;28.47;100.00;153205.19;5095632;28;20237;-62
2022/09/02 11:16:32;;;;;;;6.88;6.25;;;;;;;28.69;100.00;153258.91;5095714;28;20184;-63
2022/09/02 11:19:03;;;;;;;6.35;5.65;;;;;;;28.74;100.00;153271.75;5096318;28;20204;-63
2022/09/02 11:21:48;;;;;;;7.78;7.10;;;;;;;28.50;100.00;153211.56;5095750;28;20184;-62
2022/09/02 11:24:21;;;;;;;6.75;5.38;;;;;;;28.18;100.00;153130.88;5095815;28;20245;-63
2022/09/02 11:26:58;;;;;;;8.35;5.45;;;;;;;28.36;100.00;153175.69;5095609;28;20210;-62
2022/09/02 11:29:37;;;;;;;12.90;5.82;;;;;;;28.30;100.00;153161.66;5095851;28;20700;-63
2022/09/02 11:32:14;;;;;;;6.03;5.63;;;;;;;28.45;100.00;153198.75;5095658;28;20192;-63